Time,TemperatureF,DewpointF,PressureIn,WindDirection,WindDirectionDegrees,WindSpeedMPH,WindSpeedGustMPH,Humidity,HourlyPrecipIn,Conditions,Clouds,dailyrainin,SoftwareType,DateUTC
2013-07-22 00:02:00,70.0,66.0,29.84,North,0,0.0,-999.0,88,-99.99,,,-99.99,,2013-07-22 05:02:00,
2013-07-22 00:22:00,70.0,66.0,29.84,North,0,0.0,-999.0,88,-99.99,,,-99.99,,2013-07-22 05:22:00,
2013-07-22 00:32:00,70.0,66.0,29.84,North,0,0.0,-999.0,88,-99.99,,,-99.99,,2013-07-22 05:32:00,
2013-07-22 00:42:00,70.0,66.0,29.84,North,0,0.0,-999.0,88,-99.99,,,-99.99,,2013-07-22 05:42:00,
2013-07-22 00:52:00,70.0,68.0,29.84,North,0,0.0,-999.0,94,-99.99,,,-99.99,,2013-07-22 05:52:00,
2013-07-22 01:01:00,70.0,68.0,29.84,North,0,0.0,-999.0,94,-99.99,,,-99.99,,2013-07-22 06:01:00,
2013-07-22 01:11:00,72.0,70.0,29.82,North,0,0.0,-999.0,94,-99.99,,,-99.99,,2013-07-22 06:11:00,
2013-07-22 01:22:00,72.0,70.0,29.82,North,0,0.0,-999.0,94,-99.99,,,-99.99,,2013-07-22 06:22:00,
2013-07-22 01:32:00,72.0,70.0,29.80,South,180,5.0,-999.0,94,-99.99,,,-99.99,,2013-07-22 06:32:00,
2013-07-22 01:43:00,72.0,70.0,29.80,South,180,5.0,-999.0,94,-99.99,,,-99.99,,2013-07-22 06:43:00,
2013-07-22 02:01:00,72.0,68.0,29.80,South,180,6.0,-999.0,88,-99.99,,,-99.99,,2013-07-22 07:01:00,
2013-07-22 02:22:00,72.0,68.0,29.80,North,0,0.0,-999.0,88,-99.99,,,-99.99,,2013-07-22 07:22:00,
2013-07-22 02:33:00,72.0,68.0,29.80,North,0,0.0,-999.0,88,-99.99,,,-99.99,,2013-07-22 07:33:00,
2013-07-22 02:43:00,72.0,68.0,29.81,North,0,0.0,-999.0,88,-99.99,,,-99.99,,2013-07-22 07:43:00,
2013-07-22 03:02:00,72.0,68.0,29.81,North,0,0.0,-999.0,88,-99.99,,,-99.99,,2013-07-22 08:02:00,
2013-07-22 03:22:00,72.0,68.0,29.80,North,0,0.0,-999.0,88,-99.99,,,-99.99,,2013-07-22 08:22:00,
2013-07-22 03:32:00,70.0,68.0,29.81,South,190,5.0,-999.0,94,-99.99,,,-99.99,,2013-07-22 08:32:00,
2013-07-22 03:43:00,70.0,68.0,29.81,South,190,5.0,-999.0,94,-99.99,,,-99.99,,2013-07-22 08:43:00,
2013-07-22 04:02:00,70.0,68.0,29.80,North,0,0.0,-999.0,94,-99.99,,,-99.99,,2013-07-22 09:02:00,
2013-07-22 04:22:00,70.0,68.0,29.80,North,0,0.0,-999.0,94,-99.99,,,-99.99,,2013-07-22 09:22:00,
2013-07-22 04:42:00,70.0,66.0,29.79,North,0,0.0,-999.0,88,-99.99,,,-99.99,,2013-07-22 09:42:00,
2013-07-22 05:02:00,70.0,68.0,29.78,SSE,150,5.0,-999.0,94,-99.99,,,-99.99,,2013-07-22 10:02:00,
2013-07-22 05:11:00,70.0,68.0,29.78,SSE,150,5.0,-999.0,94,-99.99,,,-99.99,,2013-07-22 10:11:00,
2013-07-22 05:22:00,70.0,66.0,29.78,North,0,0.0,-999.0,88,-99.99,,,-99.99,,2013-07-22 10:22:00,
2013-07-22 05:43:00,70.0,66.0,29.78,SSE,160,5.0,-999.0,88,-99.99,,,-99.99,,2013-07-22 10:43:00,
2013-07-22 06:01:00,68.0,66.0,29.78,North,0,0.0,-999.0,93,-99.99,,,-99.99,,2013-07-22 11:01:00,
2013-07-22 06:23:00,68.0,66.0,29.78,North,0,0.0,-999.0,93,-99.99,,,-99.99,,2013-07-22 11:23:00,
2013-07-22 06:32:00,68.0,66.0,29.78,SSE,160,5.0,-999.0,93,-99.99,,,-99.99,,2013-07-22 11:32:00,
2013-07-22 06:43:00,68.0,66.0,29.78,SSE,160,5.0,-999.0,93,-99.99,,,-99.99,,2013-07-22 11:43:00,
2013-07-22 07:02:00,68.0,66.0,29.78,South,170,5.0,-999.0,93,-99.99,,,-99.99,,2013-07-22 12:02:00,
2013-07-22 07:11:00,68.0,66.0,29.78,South,170,5.0,-999.0,93,-99.99,,,-99.99,,2013-07-22 12:11:00,
2013-07-22 07:22:00,68.0,66.0,29.78,South,170,5.0,-999.0,93,-99.99,,,-99.99,,2013-07-22 12:22:00,
2013-07-22 07:32:00,70.0,66.0,29.78,SSE,160,7.0,-999.0,88,-99.99,,,-99.99,,2013-07-22 12:32:00,
2013-07-22 07:43:00,70.0,66.0,29.78,SSE,160,7.0,-999.0,88,-99.99,,,-99.99,,2013-07-22 12:43:00,
2013-07-22 08:01:00,70.0,66.0,29.78,South,170,7.0,-999.0,88,-99.99,,,-99.99,,2013-07-22 13:01:00,
2013-07-22 08:11:00,70.0,66.0,29.79,North,-99,5.0,-999.0,88,-99.99,,,-99.99,,2013-07-22 13:11:00,
2013-07-22 08:22:00,70.0,66.0,29.79,North,-99,5.0,-999.0,88,-99.99,,,-99.99,,2013-07-22 13:22:00,
2013-07-22 08:43:00,72.0,70.0,29.84,North,360,8.0,-999.0,94,-99.99,,,-99.99,,2013-07-22 13:43:00,
2013-07-22 08:53:00,73.0,70.0,29.83,ENE,60,5.0,-999.0,88,-99.99,,,-99.99,,2013-07-22 13:53:00,
2013-07-22 09:01:00,73.0,70.0,29.83,ENE,60,5.0,-999.0,88,-99.99,,,-99.99,,2013-07-22 14:01:00,
2013-07-22 09:22:00,75.0,70.0,29.84,East,80,6.0,-999.0,83,-99.99,,,-99.99,,2013-07-22 14:22:00,
2013-07-22 09:32:00,73.0,70.0,29.82,SSE,150,5.0,-999.0,88,-99.99,,,-99.99,,2013-07-22 14:32:00,
2013-07-22 09:43:00,73.0,70.0,29.82,SSE,150,5.0,-999.0,88,-99.99,,,-99.99,,2013-07-22 14:43:00,
2013-07-22 10:02:00,75.0,72.0,29.82,SE,140,8.0,-999.0,88,-99.99,,,-99.99,,2013-07-22 15:02:00,
2013-07-22 10:11:00,75.0,72.0,29.83,SSE,160,7.0,-999.0,88,-99.99,,,-99.99,,2013-07-22 15:11:00,
2013-07-22 10:22:00,75.0,72.0,29.83,SSE,160,7.0,-999.0,88,-99.99,,,-99.99,,2013-07-22 15:22:00,
2013-07-22 10:43:00,77.0,73.0,29.83,SSE,160,8.0,-999.0,88,-99.99,,,-99.99,,2013-07-22 15:43:00,
2013-07-22 10:52:00,79.0,73.0,29.83,North,0,0.0,-999.0,83,-99.99,,,-99.99,,2013-07-22 15:52:00,
2013-07-22 11:01:00,79.0,73.0,29.83,North,0,0.0,-999.0,83,-99.99,,,-99.99,,2013-07-22 16:01:00,
2013-07-22 11:11:00,79.0,72.0,29.83,South,170,6.0,-999.0,78,-99.99,,,-99.99,,2013-07-22 16:11:00,
2013-07-22 11:21:00,79.0,72.0,29.83,South,170,6.0,-999.0,78,-99.99,,,-99.99,,2013-07-22 16:21:00,
2013-07-22 11:43:00,81.0,72.0,29.82,WSW,240,7.0,-999.0,74,-99.99,,,-99.99,,2013-07-22 16:43:00,
2013-07-22 12:01:00,82.0,72.0,29.83,West,280,8.0,-999.0,69,-99.99,,,-99.99,,2013-07-22 17:01:00,
2013-07-22 12:23:00,82.0,72.0,29.83,WNW,300,9.0,-999.0,69,-99.99,,,-99.99,,2013-07-22 17:23:00,
2013-07-22 12:32:00,82.0,72.0,29.83,WNW,290,6.0,-999.0,69,-99.99,,,-99.99,,2013-07-22 17:32:00,
2013-07-22 12:43:00,82.0,72.0,29.83,WNW,290,6.0,-999.0,69,-99.99,,,-99.99,,2013-07-22 17:43:00,
2013-07-22 12:52:00,82.0,73.0,29.83,West,280,10.0,15.0,74,-99.99,,,-99.99,,2013-07-22 17:52:00,
2013-07-22 13:04:00,82.0,73.0,29.83,West,280,10.0,15.0,74,-99.99,,,-99.99,,2013-07-22 18:04:00,
2013-07-22 13:25:00,82.0,72.0,29.84,NW,310,8.0,-999.0,69,-99.99,,,-99.99,,2013-07-22 18:25:00,
2013-07-22 13:34:00,82.0,73.0,29.82,NNW,340,12.0,-999.0,74,-99.99,,,-99.99,,2013-07-22 18:34:00,
2013-07-22 13:49:00,82.0,73.0,29.82,NNW,340,12.0,-999.0,74,-99.99,,,-99.99,,2013-07-22 18:49:00,
2013-07-22 13:55:00,84.0,73.0,29.83,WNW,290,10.0,15.0,70,-99.99,,,-99.99,,2013-07-22 18:55:00,
2013-07-22 14:05:00,84.0,73.0,29.83,WNW,290,10.0,15.0,70,-99.99,,,-99.99,,2013-07-22 19:05:00,
2013-07-22 14:23:00,84.0,72.0,29.83,NW,310,10.0,15.0,65,-99.99,,,-99.99,,2013-07-22 19:23:00,
2013-07-22 14:34:00,84.0,72.0,29.83,NW,310,9.0,-999.0,65,-99.99,,,-99.99,,2013-07-22 19:34:00,
2013-07-22 14:44:00,84.0,72.0,29.83,NW,310,9.0,-999.0,65,-99.99,,,-99.99,,2013-07-22 19:44:00,
2013-07-22 15:04:00,84.0,70.0,29.83,WNW,290,14.0,-999.0,62,-99.99,,,-99.99,,2013-07-22 20:04:00,
2013-07-22 15:22:00,84.0,70.0,29.83,NW,310,13.0,17.0,62,-99.99,,,-99.99,,2013-07-22 20:22:00,
2013-07-22 15:32:00,84.0,68.0,29.84,NW,310,12.0,18.0,58,-99.99,,,-99.99,,2013-07-22 20:32:00,
2013-07-22 15:43:00,84.0,68.0,29.84,NW,310,12.0,18.0,58,-99.99,,,-99.99,,2013-07-22 20:43:00,
2013-07-22 16:01:00,84.0,66.0,29.84,WNW,300,14.0,-999.0,54,-99.99,,,-99.99,,2013-07-22 21:01:00,
2013-07-22 16:22:00,84.0,70.0,29.84,WNW,290,12.0,-999.0,62,-99.99,,,-99.99,,2013-07-22 21:22:00,
2013-07-22 16:32:00,84.0,70.0,29.84,WNW,290,12.0,-999.0,62,-99.99,,,-99.99,,2013-07-22 21:32:00,
2013-07-22 16:43:00,84.0,70.0,29.84,WNW,290,12.0,-999.0,62,-99.99,,,-99.99,,2013-07-22 21:43:00,
2013-07-22 17:01:00,84.0,64.0,29.84,WNW,300,14.0,20.0,51,-99.99,,,-99.99,,2013-07-22 22:01:00,
2013-07-22 17:22:00,84.0,63.0,29.85,NNW,330,12.0,-999.0,48,-99.99,,,-99.99,,2013-07-22 22:22:00,
2013-07-22 17:32:00,84.0,64.0,29.85,NNW,330,9.0,-999.0,51,-99.99,,,-99.99,,2013-07-22 22:32:00,
2013-07-22 17:43:00,84.0,64.0,29.85,NNW,330,9.0,-999.0,51,-99.99,,,-99.99,,2013-07-22 22:43:00,
2013-07-22 18:01:00,84.0,63.0,29.85,North,350,10.0,15.0,48,-99.99,,,-99.99,,2013-07-22 23:01:00,
2013-07-22 18:22:00,82.0,63.0,29.85,NNW,330,10.0,17.0,51,-99.99,,,-99.99,,2013-07-22 23:22:00,
2013-07-22 18:42:00,82.0,63.0,29.85,NNW,330,10.0,15.0,51,-99.99,,,-99.99,,2013-07-22 23:42:00,
2013-07-22 19:01:00,82.0,63.0,29.86,NNW,330,10.0,-999.0,51,-99.99,,,-99.99,,2013-07-23 00:01:00,
2013-07-22 19:22:00,81.0,63.0,29.86,NW,320,9.0,-999.0,54,-99.99,,,-99.99,,2013-07-23 00:22:00,
2013-07-22 19:32:00,81.0,63.0,29.86,NW,320,9.0,-999.0,54,-99.99,,,-99.99,,2013-07-23 00:32:00,
2013-07-22 19:43:00,81.0,63.0,29.86,NW,320,9.0,-999.0,54,-99.99,,,-99.99,,2013-07-23 00:43:00,
2013-07-22 20:01:00,81.0,63.0,29.87,NW,320,12.0,-999.0,54,-99.99,,,-99.99,,2013-07-23 01:01:00,
2013-07-22 20:22:00,79.0,64.0,29.87,NNW,330,7.0,-999.0,61,-99.99,,,-99.99,,2013-07-23 01:22:00,
2013-07-22 20:32:00,79.0,64.0,29.87,NNW,330,5.0,-999.0,61,-99.99,,,-99.99,,2013-07-23 01:32:00,
2013-07-22 20:43:00,79.0,64.0,29.87,NNW,330,5.0,-999.0,61,-99.99,,,-99.99,,2013-07-23 01:43:00,
2013-07-22 21:01:00,75.0,64.0,29.87,NNW,340,5.0,-999.0,69,-99.99,,,-99.99,,2013-07-23 02:01:00,
2013-07-22 21:22:00,73.0,64.0,29.88,North,0,0.0,-999.0,73,-99.99,,,-99.99,,2013-07-23 02:22:00,
2013-07-22 21:43:00,72.0,63.0,29.88,North,0,0.0,-999.0,73,-99.99,,,-99.99,,2013-07-23 02:43:00,
2013-07-22 22:01:00,70.0,63.0,29.89,North,350,5.0,-999.0,77,-99.99,,,-99.99,,2013-07-23 03:01:00,
2013-07-22 22:22:00,70.0,63.0,29.91,North,0,0.0,-999.0,77,-99.99,,,-99.99,,2013-07-23 03:22:00,
2013-07-22 22:33:00,68.0,63.0,29.93,North,10,5.0,-999.0,82,-99.99,,,-99.99,,2013-07-23 03:33:00,
2013-07-22 22:43:00,68.0,63.0,29.93,North,10,5.0,-999.0,82,-99.99,,,-99.99,,2013-07-23 03:43:00,
2013-07-22 23:01:00,68.0,63.0,29.93,North,360,6.0,-999.0,82,-99.99,,,-99.99,,2013-07-23 04:01:00,
2013-07-22 23:21:00,66.0,63.0,29.94,North,10,5.0,-999.0,88,-99.99,,,-99.99,,2013-07-23 04:21:00,
2013-07-22 23:32:00,66.0,63.0,29.95,North,0,0.0,-999.0,88,-99.99,,,-99.99,,2013-07-23 04:32:00,
2013-07-22 23:43:00,66.0,63.0,29.95,North,0,0.0,-999.0,88,-99.99,,,-99.99,,2013-07-23 04:43:00,